Terminal Aerodrome Forecast
Issued by NWS

Home | Current Version | Previous Version | Text Only | Print | Product List | Glossary On
Versions: 1 2 3 4 5 6 7 8 9 10 11 12 13 14 15 16 17 18 19 20 21 22 23 24 25 26 27 28 29
000
FTUS45 KPSR 021100
TAFPHX
TAF
KPHX 021120Z 0212/0312 16008KT P6SM SCT045 OVC060
     FM021400 16014KT P6SM VCSH BKN040 OVC060
     FM021700 19011G20KT P6SM -RA SCT025 OVC035
      TEMPO 0217/0219 24016G26KT 3SM RA BR BKN020 OVC030
     FM022100 27012KT P6SM VCSH SCT030 OVC060
     FM022300 23008KT P6SM SCT040 BKN250
     FM030200 11005KT P6SM BKN080=

USA.gov is the U.S. government's official web portal to all federal, state and local government web resources and services.